Time;durP1;ratioP1;P1;durP2;ratioP2;P2;SDS_P1;SDS_P2;PMS_P1;PMS_P2;Temp;Humidity;BMP_temperature;BMP_pressure;BME280_temperature;BME280_humidity;BME280_pressure;Samples;Min_cycle;Max_cycle;Signal;HPM_P1;HPM_P2
2022/04/07 00:01:51;;;;;;;11.50;10.27;;;;;;;13.24;69.49;100175.00;5010629;28;20056;-87
2022/04/07 00:04:18;;;;;;;11.60;10.40;;;;;;;13.24;69.58;100177.69;5028229;28;20128;-86
2022/04/07 00:06:45;;;;;;;11.02;9.98;;;;;;;13.20;69.81;100168.34;5030417;28;20053;-87
2022/04/07 00:09:12;;;;;;;10.68;9.57;;;;;;;13.02;69.58;100134.66;5014083;28;20049;-87
2022/04/07 00:11:38;;;;;;;11.93;10.52;;;;;;;12.84;70.52;100128.66;5018126;28;20053;-86
2022/04/07 00:14:05;;;;;;;13.57;10.32;;;;;;;12.59;70.37;100093.94;5020494;28;20076;-88
2022/04/07 00:16:32;;;;;;;16.42;10.32;;;;;;;11.63;70.04;99931.09;5038698;28;20053;-87
2022/04/07 00:18:59;;;;;;;11.93;9.57;;;;;;;11.60;70.10;99926.91;5038510;28;20066;-87
2022/04/07 00:21:35;;;;;;;13.32;10.43;;;;;;;11.68;70.45;99942.09;5035971;28;20499;-85
2022/04/07 00:24:05;;;;;;;11.82;9.40;;;;;;;12.11;69.88;99999.63;5013540;28;20092;-86
2022/04/07 00:26:35;;;;;;;14.40;9.73;;;;;;;11.54;70.16;99908.94;5016920;28;20422;-85
2022/04/07 00:29:02;;;;;;;13.75;9.88;;;;;;;12.71;70.06;100096.31;5013719;28;20046;-86
2022/04/07 00:31:38;;;;;;;14.25;9.80;;;;;;;12.17;70.22;100004.31;5013654;28;20119;-86
2022/04/07 00:34:08;;;;;;;11.40;9.57;;;;;;;12.08;70.47;99991.97;5030818;28;20517;-87
2022/04/07 00:36:35;;;;;;;13.02;10.10;;;;;;;11.51;70.51;99906.63;5013623;28;20534;-87
2022/04/07 00:39:02;;;;;;;10.82;9.80;;;;;;;11.59;70.82;99914.63;5030786;28;20456;-87
2022/04/07 00:41:29;;;;;;;10.35;9.15;;;;;;;12.82;70.76;100114.66;5030822;28;20487;-89
2022/04/07 00:43:56;;;;;;;10.98;9.48;;;;;;;13.00;70.79;100144.66;5030496;28;20053;-87
2022/04/07 00:46:22;;;;;;;13.15;9.90;;;;;;;13.04;70.82;100143.34;5029566;28;20574;-86
2022/04/07 00:48:50;;;;;;;13.40;9.38;;;;;;;12.95;70.65;100125.66;5013072;28;20078;-88
2022/04/07 00:51:16;;;;;;;11.68;9.18;;;;;;;13.13;70.55;100143.34;5013283;28;20051;-86
2022/04/07 00:53:45;;;;;;;11.63;9.70;;;;;;;12.85;70.01;100071.69;5013323;28;20045;-88
2022/04/07 00:56:12;;;;;;;13.68;10.95;;;;;;;12.91;70.89;100112.81;5015259;28;20522;-85
2022/04/07 00:58:39;;;;;;;13.50;10.82;;;;;;;12.49;70.34;100039.16;5017375;28;20049;-88
2022/04/07 01:01:08;;;;;;;12.13;9.80;;;;;;;12.87;70.41;100096.34;5019442;28;20045;-87
2022/04/07 01:03:35;;;;;;;12.25;9.95;;;;;;;12.98;70.96;100127.97;5013555;28;20384;-89
2022/04/07 01:06:02;;;;;;;11.82;9.95;;;;;;;12.49;70.54;100040.00;5012561;28;20476;-85
2022/04/07 01:08:29;;;;;;;22.70;11.77;;;;;;;13.08;70.54;100125.16;5013063;28;20124;-87
2022/04/07 01:10:56;;;;;;;14.75;11.07;;;;;;;13.02;70.36;100120.50;5030198;28;20045;-88
2022/04/07 01:13:22;;;;;;;13.50;10.93;;;;;;;12.57;70.60;100061.34;5013045;28;20289;-87
2022/04/07 01:15:49;;;;;;;16.67;11.30;;;;;;;12.80;70.31;100095.34;5012727;28;20402;-88
2022/04/07 01:18:17;;;;;;;12.27;11.00;;;;;;;12.36;70.31;100015.69;5012726;28;20049;-87
2022/04/07 01:20:44;;;;;;;13.68;11.77;;;;;;;11.42;70.54;99862.38;5012268;28;20384;-87
2022/04/07 01:23:11;;;;;;;17.00;12.00;;;;;;;12.29;70.47;99993.38;5012558;28;20579;-85
2022/04/07 01:25:38;;;;;;;15.57;12.38;;;;;;;12.44;70.04;100021.00;5012482;28;20564;-86
2022/04/07 01:28:05;;;;;;;15.20;12.63;;;;;;;12.00;70.03;99960.00;5030049;28;20506;-86
2022/04/07 01:30:32;;;;;;;14.30;12.82;;;;;;;11.71;70.56;99902.69;5012320;28;20053;-87
2022/04/07 01:33:00;;;;;;;17.50;12.88;;;;;;;11.67;69.98;99901.34;5030220;28;20041;-87
2022/04/07 01:35:28;;;;;;;14.98;13.48;;;;;;;12.42;70.32;100017.69;5012667;28;20056;-86
2022/04/07 01:37:57;;;;;;;13.82;12.43;;;;;;;12.93;70.20;100106.34;5012272;28;20065;-87
2022/04/07 01:40:28;;;;;;;18.40;14.05;;;;;;;12.72;70.49;100071.31;5012522;28;20046;-87
2022/04/07 01:42:56;;;;;;;15.77;14.15;;;;;;;13.00;70.65;100107.34;5028778;28;20049;-86
2022/04/07 01:45:23;;;;;;;14.32;12.90;;;;;;;12.89;70.81;100094.34;5029922;28;20190;-87
2022/04/07 01:47:52;;;;;;;18.02;14.10;;;;;;;12.94;70.68;100092.03;5012186;28;20053;-87
2022/04/07 01:50:20;;;;;;;17.42;13.02;;;;;;;12.14;70.31;99972.69;5012203;28;20140;-87
2022/04/07 01:52:48;;;;;;;15.93;14.35;;;;;;;11.72;70.44;99892.88;5012584;28;20136;-87
2022/04/07 01:55:16;;;;;;;21.77;15.25;;;;;;;13.01;70.57;100097.50;5012408;28;20053;-86
2022/04/07 01:57:44;;;;;;;18.58;14.77;;;;;;;12.98;70.44;100109.34;5028590;28;20048;-87
2022/04/07 02:00:11;;;;;;;17.83;14.35;;;;;;;12.92;70.44;100094.03;5012218;28;20041;-87
2022/04/07 02:02:37;;;;;;;16.75;14.73;;;;;;;12.97;70.33;100099.69;5012215;28;20136;-87
2022/04/07 02:05:08;;;;;;;18.75;14.85;;;;;;;11.95;70.47;99941.06;5029884;28;20523;-87
2022/04/07 02:07:38;;;;;;;17.23;15.50;;;;;;;12.39;70.25;100010.03;5012353;28;20045;-87
2022/04/07 02:10:07;;;;;;;15.90;14.32;;;;;;;11.39;70.40;99854.75;5029794;28;20050;-86
2022/04/07 02:12:36;;;;;;;18.77;14.80;;;;;;;11.95;70.31;99928.56;5012582;28;20049;-87
2022/04/07 02:15:07;;;;;;;23.48;15.77;;;;;;;11.94;70.48;99934.03;5030249;28;20045;-87
2022/04/07 02:17:34;;;;;;;18.50;15.38;;;;;;;12.04;70.20;99961.38;5047468;28;20099;-88
2022/04/07 02:20:04;;;;;;;17.48;14.60;;;;;;;12.43;70.72;100034.47;5031731;28;20056;-87
2022/04/07 02:22:30;;;;;;;17.15;15.45;;;;;;;12.79;70.84;100086.50;5031642;28;20049;-87
2022/04/07 02:24:58;;;;;;;17.17;15.43;;;;;;;11.88;70.67;99935.53;5049106;28;20426;-86
2022/04/07 02:27:25;;;;;;;17.60;14.93;;;;;;;11.07;70.21;99819.06;5032251;28;20059;-88
2022/04/07 02:29:52;;;;;;;16.73;15.10;;;;;;;12.48;70.72;100043.66;5049343;28;20549;-87
2022/04/07 02:32:19;;;;;;;16.92;14.90;;;;;;;11.23;70.62;99840.38;5049904;28;20397;-87
2022/04/07 02:34:46;;;;;;;19.23;15.43;;;;;;;11.65;70.69;99914.00;5050453;28;20452;-86
2022/04/07 02:37:12;;;;;;;17.27;14.68;;;;;;;12.65;70.01;100065.00;5031010;28;20135;-87
2022/04/07 02:39:39;;;;;;;16.38;14.20;;;;;;;11.49;69.86;99888.16;5031576;28;20049;-88
2022/04/07 02:42:06;;;;;;;12.30;11.23;;;;;;;12.22;68.93;100008.31;5031202;28;20449;-87
2022/04/07 02:44:33;;;;;;;13.63;11.98;;;;;;;11.61;67.66;99902.00;5031074;28;20484;-86
2022/04/07 02:46:59;;;;;;;13.27;11.80;;;;;;;12.66;66.91;100072.81;5031216;28;20088;-88
2022/04/07 02:49:26;;;;;;;13.07;11.52;;;;;;;12.50;66.80;100052.31;5049307;28;20410;-88
2022/04/07 02:51:52;;;;;;;12.70;11.00;;;;;;;12.28;65.02;100007.66;5034085;28;20051;-87
2022/04/07 02:54:19;;;;;;;16.15;11.82;;;;;;;12.46;65.79;100029.69;5035210;28;20578;-88
2022/04/07 02:56:47;;;;;;;12.98;11.75;;;;;;;12.51;65.40;100053.97;5033705;28;20135;-88
2022/04/07 02:59:14;;;;;;;13.05;10.65;;;;;;;12.48;65.33;100050.81;5032021;28;20049;-87
2022/04/07 03:01:40;;;;;;;12.75;11.45;;;;;;;12.39;64.96;100039.31;5049108;28;20483;-88
2022/04/07 03:04:07;;;;;;;11.50;10.40;;;;;;;12.53;64.72;100062.63;5050543;28;20041;-87
2022/04/07 03:06:34;;;;;;;12.15;11.05;;;;;;;12.28;64.94;100027.13;5034718;28;20135;-87
2022/04/07 03:09:01;;;;;;;13.38;10.68;;;;;;;12.24;65.08;100025.78;5034698;28;20495;-87
2022/04/07 03:11:27;;;;;;;13.55;10.57;;;;;;;12.28;65.47;100036.94;5033749;28;20479;-86
2022/04/07 03:13:54;;;;;;;12.57;10.73;;;;;;;12.27;65.61;100043.25;5033081;28;20080;-87
2022/04/07 03:16:21;;;;;;;12.02;10.32;;;;;;;11.33;65.24;99888.94;5028770;28;20077;-87
2022/04/07 03:18:48;;;;;;;13.35;10.57;;;;;;;12.29;65.52;100049.25;5019700;28;20519;-88
2022/04/07 03:21:14;;;;;;;11.98;10.85;;;;;;;12.09;65.23;100022.91;5012529;28;20143;-87
2022/04/07 03:23:41;;;;;;;12.60;11.40;;;;;;;11.87;65.43;99994.19;5011011;28;20065;-87
2022/04/07 03:26:08;;;;;;;12.88;11.38;;;;;;;11.21;65.17;99887.50;5011246;28;20128;-86
2022/04/07 03:28:34;;;;;;;12.55;11.30;;;;;;;10.97;66.04;99844.88;5012508;28;20474;-87
2022/04/07 03:31:01;;;;;;;13.35;12.15;;;;;;;11.03;65.95;99870.81;5028674;28;20562;-86
2022/04/07 03:33:28;;;;;;;16.10;12.80;;;;;;;10.56;65.69;99804.81;5010502;28;20057;-88
2022/04/07 03:35:54;;;;;;;14.43;12.93;;;;;;;10.98;66.16;99883.75;5028200;28;20111;-86
2022/04/07 03:38:21;;;;;;;14.90;13.43;;;;;;;12.08;65.16;100047.81;5010309;28;20653;-86
2022/04/07 03:40:48;;;;;;;13.73;12.50;;;;;;;12.16;65.64;100060.31;5010224;28;20049;-86
2022/04/07 03:43:14;;;;;;;17.92;13.27;;;;;;;12.18;65.58;100072.50;5027990;28;20179;-86
2022/04/07 03:45:41;;;;;;;15.32;13.68;;;;;;;12.26;64.55;100077.03;5027823;28;20045;-86
2022/04/07 03:48:07;;;;;;;16.60;12.57;;;;;;;12.37;64.48;100078.56;5010237;28;20081;-86
2022/04/07 03:50:34;;;;;;;15.05;13.38;;;;;;;12.35;64.27;100080.53;5011108;28;20452;-86
2022/04/07 03:53:01;;;;;;;15.50;12.90;;;;;;;12.11;63.88;100044.88;5010128;28;20064;-89
2022/04/07 03:55:27;;;;;;;15.68;14.18;;;;;;;12.29;64.45;100084.69;5010096;28;20110;-87
2022/04/07 03:57:54;;;;;;;13.70;12.43;;;;;;;12.25;64.41;100086.00;5027368;28;20388;-86
2022/04/07 04:00:21;;;;;;;14.32;13.00;;;;;;;12.15;63.83;100069.31;5010022;28;20356;-87
2022/04/07 04:02:48;;;;;;;14.20;12.82;;;;;;;12.18;63.59;100079.63;5027321;28;20144;-88
2022/04/07 04:05:18;;;;;;;13.95;12.65;;;;;;;11.92;63.58;100032.66;5027807;28;20123;-87
2022/04/07 04:07:45;;;;;;;17.30;13.02;;;;;;;11.05;63.26;99895.41;5010196;28;20099;-86
2022/04/07 04:10:11;;;;;;;13.68;12.27;;;;;;;11.58;63.73;99992.72;5009914;28;20089;-87
2022/04/07 04:12:38;;;;;;;14.80;13.20;;;;;;;11.54;63.50;99980.72;5027524;28;20072;-87
2022/04/07 04:15:05;;;;;;;14.15;12.80;;;;;;;12.21;63.36;100086.47;5027396;28;20628;-86
2022/04/07 04:17:33;;;;;;;15.57;13.30;;;;;;;12.07;63.39;100067.47;5027558;28;20269;-87
2022/04/07 04:20:00;;;;;;;15.55;13.93;;;;;;;11.79;63.39;100021.56;5047497;28;20262;-88
2022/04/07 04:22:28;;;;;;;13.82;12.43;;;;;;;11.53;63.76;99990.53;5029003;28;20453;-88
2022/04/07 04:24:54;;;;;;;13.88;12.57;;;;;;;11.85;63.67;100047.53;5029588;28;20465;-86
2022/04/07 04:27:21;;;;;;;15.82;14.32;;;;;;;11.97;63.69;100056.09;5029494;28;20072;-87
2022/04/07 04:29:48;;;;;;;14.93;13.63;;;;;;;11.77;63.21;100035.03;5029032;28;20128;-86
2022/04/07 04:32:14;;;;;;;16.08;14.45;;;;;;;11.87;63.84;100055.38;5029576;28;20053;-87
2022/04/07 04:34:41;;;;;;;16.88;14.75;;;;;;;12.07;63.58;100099.38;5047205;28;20055;-86
2022/04/07 04:37:07;;;;;;;17.08;15.35;;;;;;;12.04;64.11;100102.38;5029231;28;20079;-87
2022/04/07 04:39:36;;;;;;;16.90;15.25;;;;;;;11.18;64.00;99954.25;5029672;28;20495;-88
2022/04/07 04:42:04;;;;;;;18.08;15.45;;;;;;;12.07;64.23;100112.69;5029780;28;20048;-86
2022/04/07 04:44:31;;;;;;;16.95;15.18;;;;;;;12.01;64.40;100105.31;5030022;28;20139;-85
2022/04/07 04:46:58;;;;;;;16.92;15.23;;;;;;;11.80;64.23;100086.25;5030172;28;20053;-86
2022/04/07 04:49:24;;;;;;;16.17;14.52;;;;;;;11.70;64.61;100079.19;5028985;28;20060;-86
2022/04/07 04:51:51;;;;;;;17.42;15.68;;;;;;;11.78;64.10;100089.03;5029266;28;20049;-85
2022/04/07 04:54:18;;;;;;;18.73;16.83;;;;;;;11.56;64.30;100058.50;5028218;28;20140;-85
2022/04/07 04:56:45;;;;;;;17.40;15.57;;;;;;;12.02;64.52;100133.63;5026897;28;20044;-85
2022/04/07 04:59:11;;;;;;;17.55;15.88;;;;;;;11.86;64.34;100104.22;5027711;28;20486;-86
2022/04/07 05:01:38;;;;;;;17.50;15.70;;;;;;;12.01;63.26;100126.59;5012845;28;20128;-87
2022/04/07 05:04:05;;;;;;;16.45;14.82;;;;;;;11.97;63.75;100125.28;5009707;28;20399;-84
2022/04/07 05:06:32;;;;;;;19.73;17.63;;;;;;;11.98;63.71;100134.91;5015812;28;20046;-86
2022/04/07 05:08:59;;;;;;;14.30;12.80;;;;;;;10.84;63.03;99936.41;5027806;28;20126;-86
2022/04/07 05:11:26;;;;;;;14.80;13.32;;;;;;;12.02;62.08;100112.34;5014735;28;20134;-86
2022/04/07 05:13:52;;;;;;;16.00;14.10;;;;;;;11.23;62.86;100004.28;5012382;28;20037;-87
2022/04/07 05:16:19;;;;;;;14.43;11.13;;;;;;;10.89;61.52;99931.47;5015773;28;20458;-86
2022/04/07 05:18:48;;;;;;;11.55;10.55;;;;;;;12.13;61.31;100119.19;5031870;28;20049;-86
2022/04/07 05:21:16;;;;;;;15.68;11.30;;;;;;;10.87;61.46;99940.59;5010247;28;20134;-84
2022/04/07 05:23:43;;;;;;;11.80;10.45;;;;;;;10.47;61.47;99865.78;5026340;28;20057;-85
2022/04/07 05:26:12;;;;;;;13.20;10.07;;;;;;;11.93;60.74;100094.66;5009794;28;20053;-88
2022/04/07 05:28:42;;;;;;;11.38;9.73;;;;;;;12.13;60.39;100130.66;5027140;28;20065;-85
2022/04/07 05:31:09;;;;;;;10.38;9.23;;;;;;;12.01;60.45;100125.78;5009682;28;20049;-85
2022/04/07 05:33:36;;;;;;;10.35;9.45;;;;;;;12.03;60.62;100129.94;5009799;28;20092;-84
2022/04/07 05:36:03;;;;;;;13.30;11.32;;;;;;;10.88;60.43;99961.69;5014328;28;20507;-86
2022/04/07 05:38:30;;;;;;;15.70;11.20;;;;;;;12.07;60.67;100141.13;5014633;28;20089;-86
2022/04/07 05:41:00;;;;;;;15.35;11.63;;;;;;;11.91;60.33;100126.72;5022721;28;20045;-83
2022/04/07 05:43:40;;;;;;;11.98;10.35;;;;;;;12.25;59.50;100146.38;5031002;28;20084;-85
2022/04/07 05:46:07;;;;;;;13.85;10.65;;;;;;;12.34;58.90;100156.06;5009972;28;20053;-86
2022/04/07 05:48:34;;;;;;;12.88;10.32;;;;;;;12.18;59.32;100139.03;5027122;28;20414;-87
2022/04/07 05:51:01;;;;;;;12.10;10.88;;;;;;;12.23;59.44;100151.00;5009469;28;20255;-86
2022/04/07 05:53:27;;;;;;;15.45;9.93;;;;;;;12.22;58.30;100134.22;5009046;28;20132;-86
2022/04/07 05:55:57;;;;;;;10.93;9.43;;;;;;;11.96;57.98;100094.31;5008629;28;20567;-88
2022/04/07 05:58:24;;;;;;;11.88;9.23;;;;;;;12.43;57.94;100163.13;5024953;28;20139;-86
2022/04/07 06:00:51;;;;;;;10.55;9.45;;;;;;;12.41;58.27;100175.75;5008835;28;20052;-85
2022/04/07 06:03:18;;;;;;;11.38;9.45;;;;;;;12.34;57.44;100158.72;5025082;28;20067;-87
2022/04/07 06:05:45;;;;;;;10.65;9.55;;;;;;;11.96;57.37;100087.16;5008892;28;20053;-85
2022/04/07 06:08:12;;;;;;;9.90;8.93;;;;;;;11.97;56.57;100080.06;5028369;28;20494;-84
2022/04/07 06:10:38;;;;;;;10.93;8.00;;;;;;;12.11;56.36;100097.22;5009233;28;20290;-84
2022/04/07 06:13:05;;;;;;;10.55;9.30;;;;;;;12.20;55.89;100098.94;5030640;28;20046;-85
2022/04/07 06:15:32;;;;;;;14.52;9.80;;;;;;;11.82;55.62;100036.38;5032303;28;20395;-86
2022/04/07 06:18:01;;;;;;;10.77;9.48;;;;;;;12.53;55.30;100153.16;5030392;28;20056;-86
2022/04/07 06:20:28;;;;;;;10.10;9.10;;;;;;;12.72;55.47;100188.50;5025258;28;20080;-83
2022/04/07 06:22:54;;;;;;;11.40;9.20;;;;;;;12.79;55.60;100189.53;5029538;28;20155;-83
2022/04/07 06:25:21;;;;;;;11.02;8.75;;;;;;;12.66;55.57;100159.88;5010392;28;20046;-83
2022/04/07 06:27:53;;;;;;;9.88;8.88;;;;;;;12.92;55.25;100186.44;5010295;28;20085;-84
2022/04/07 06:30:20;;;;;;;12.32;9.63;;;;;;;12.93;55.31;100186.25;5009752;28;20248;-82
2022/04/07 06:32:48;;;;;;;10.38;9.15;;;;;;;12.92;54.38;100160.63;5010050;28;20466;-83
2022/04/07 06:35:16;;;;;;;10.38;9.27;;;;;;;13.14;54.11;100185.00;5027666;28;20050;-86
2022/04/07 06:37:49;;;;;;;10.25;9.10;;;;;;;12.35;54.17;100062.72;5010244;28;20473;-85
2022/04/07 06:40:21;;;;;;;13.35;9.52;;;;;;;12.38;53.98;100069.59;5030482;28;20153;-86
2022/04/07 06:42:49;;;;;;;13.90;10.18;;;;;;;13.28;53.69;100199.53;5029589;28;20115;-85
2022/04/07 06:45:22;;;;;;;18.85;10.57;;;;;;;12.77;53.37;100101.00;5013035;28;20045;-85
2022/04/07 06:47:49;;;;;;;12.63;9.95;;;;;;;12.83;52.85;100110.97;5043979;28;20056;-85
2022/04/07 06:50:17;;;;;;;11.55;10.32;;;;;;;12.63;52.02;100069.66;5010587;28;20084;-84
2022/04/07 06:52:45;;;;;;;13.82;10.18;;;;;;;13.25;51.97;100155.34;5010901;28;20049;-84
2022/04/07 06:55:16;;;;;;;10.00;8.90;;;;;;;13.48;52.14;100192.91;5011845;28;20177;-86
2022/04/07 06:57:47;;;;;;;11.02;9.85;;;;;;;13.56;51.94;100195.56;5010839;28;20041;-86
2022/04/07 07:00:14;;;;;;;10.75;9.75;;;;;;;13.53;51.67;100195.09;5028484;28;20081;-84
2022/04/07 07:02:41;;;;;;;9.82;8.80;;;;;;;13.63;51.91;100190.41;5028332;28;20144;-86
2022/04/07 07:05:08;;;;;;;10.15;9.18;;;;;;;13.46;51.42;100158.41;5011172;28;20073;-86
2022/04/07 07:07:38;;;;;;;10.18;9.15;;;;;;;13.56;51.19;100170.75;5010733;28;20049;-84
2022/04/07 07:10:05;;;;;;;10.48;9.13;;;;;;;12.97;50.86;100054.41;5011647;28;20057;-84
2022/04/07 07:12:35;;;;;;;10.35;9.25;;;;;;;13.49;50.78;100116.41;5014149;28;20053;-85
2022/04/07 07:15:05;;;;;;;10.43;8.38;;;;;;;13.85;50.04;100171.06;5012230;28;20055;-82
2022/04/07 07:17:37;;;;;;;12.13;9.40;;;;;;;13.84;49.30;100181.91;5011491;28;20081;-86
2022/04/07 07:20:07;;;;;;;10.70;8.98;;;;;;;13.91;49.11;100166.91;5010805;28;20153;-85
2022/04/07 07:22:33;;;;;;;10.88;9.77;;;;;;;13.86;49.28;100177.25;5009913;28;20076;-84
2022/04/07 07:25:00;;;;;;;10.88;9.68;;;;;;;13.80;49.64;100170.75;5028459;28;20045;-86
2022/04/07 07:27:27;;;;;;;11.38;9.68;;;;;;;13.88;49.85;100186.75;5048379;28;20073;-84
2022/04/07 07:29:54;;;;;;;10.63;9.57;;;;;;;13.71;49.86;100158.41;5030770;28;20506;-87
2022/04/07 07:32:20;;;;;;;10.18;9.10;;;;;;;12.96;49.77;100025.25;5030324;28;20126;-85
2022/04/07 07:34:47;;;;;;;10.90;9.73;;;;;;;13.94;50.04;100184.41;5030253;28;20052;-85
2022/04/07 07:37:17;;;;;;;10.00;9.02;;;;;;;12.92;49.64;100003.44;5048024;28;20045;-84
2022/04/07 07:39:44;;;;;;;10.15;9.07;;;;;;;14.03;49.28;100199.41;5046506;28;20053;-86
2022/04/07 07:42:14;;;;;;;9.90;8.95;;;;;;;13.89;49.21;100177.75;5030231;28;20057;-85
2022/04/07 07:44:43;;;;;;;10.77;9.68;;;;;;;13.52;48.76;100098.25;5030130;28;20053;-85
2022/04/07 07:47:18;;;;;;;10.27;9.27;;;;;;;14.17;49.35;100206.72;5031303;28;20056;-85
2022/04/07 07:49:45;;;;;;;10.32;9.25;;;;;;;13.58;49.16;100100.22;5030334;28;20103;-85
2022/04/07 07:52:12;;;;;;;10.65;9.20;;;;;;;13.56;49.78;100117.41;5030247;28;20045;-83
2022/04/07 07:54:38;;;;;;;9.80;8.35;;;;;;;13.11;49.58;100036.09;5048108;28;20049;-87
2022/04/07 07:57:05;;;;;;;13.65;9.25;;;;;;;14.10;49.93;100185.22;5029646;28;20144;-87
2022/04/07 07:59:32;;;;;;;11.40;9.18;;;;;;;13.30;49.63;100038.44;5029347;28;20110;-84
2022/04/07 08:02:02;;;;;;;10.85;9.52;;;;;;;13.70;49.90;100103.41;5029649;28;20075;-85
2022/04/07 08:04:30;;;;;;;14.48;9.73;;;;;;;13.72;49.34;100095.25;5030535;28;20114;-84
2022/04/07 08:06:56;;;;;;;11.90;9.25;;;;;;;14.00;49.69;100146.38;5030219;28;20777;-85
2022/04/07 08:09:23;;;;;;;11.00;8.05;;;;;;;14.43;50.14;100198.50;5030284;28;20049;-84
2022/04/07 08:11:50;;;;;;;10.52;9.65;;;;;;;14.01;49.21;100092.00;5029966;28;20040;-85
2022/04/07 08:14:20;;;;;;;10.65;9.15;;;;;;;13.90;49.83;100091.34;5029842;28;20080;-83
2022/04/07 08:16:47;;;;;;;9.50;8.50;;;;;;;14.56;49.49;100184.63;5046479;28;20073;-85
2022/04/07 08:19:13;;;;;;;10.13;8.95;;;;;;;14.62;49.76;100186.63;5030019;28;20060;-85
2022/04/07 08:21:40;;;;;;;9.48;8.57;;;;;;;14.44;49.52;100128.06;5047991;28;20379;-85
2022/04/07 08:24:07;;;;;;;11.57;9.50;;;;;;;13.53;49.24;99952.41;5035194;28;20158;-86
2022/04/07 08:26:34;;;;;;;10.23;9.32;;;;;;;14.77;49.20;100161.84;5009537;28;20458;-86
2022/04/07 08:29:00;;;;;;;11.38;9.27;;;;;;;13.81;49.01;99985.66;5011012;28;20466;-86
2022/04/07 08:31:43;;;;;;;10.13;8.73;;;;;;;14.56;48.97;100088.47;5013834;28;20064;-83
2022/04/07 08:34:11;;;;;;;11.23;8.40;;;;;;;15.09;48.14;100168.84;5030256;28;20049;-85
2022/04/07 08:36:39;;;;;;;10.65;9.05;;;;;;;13.84;47.88;99955.16;5014256;28;20468;-87
2022/04/07 08:39:06;;;;;;;9.05;8.15;;;;;;;14.32;47.59;100020.81;5013171;28;20045;-86
2022/04/07 08:41:42;;;;;;;12.80;8.95;;;;;;;14.87;46.99;100111.69;5028609;28;20055;-83
2022/04/07 08:44:12;;;;;;;12.73;8.00;;;;;;;14.12;47.50;99982.19;5049642;28;20052;-85
2022/04/07 08:47:02;;;;;;;12.32;9.13;;;;;;;13.96;46.78;99955.59;5050466;28;20118;-85
2022/04/07 08:49:31;;;;;;;8.77;7.88;;;;;;;14.52;47.59;100028.38;5050273;28;20055;-82
2022/04/07 08:51:58;;;;;;;9.00;7.95;;;;;;;15.13;46.38;100085.44;5033387;28;20060;-85
2022/04/07 08:54:30;;;;;;;13.02;7.30;;;;;;;13.98;46.68;99901.03;5049714;28;20129;-87
2022/04/07 08:56:57;;;;;;;8.40;7.22;;;;;;;15.23;46.47;100095.06;5033755;28;20061;-86
2022/04/07 08:59:23;;;;;;;8.52;7.35;;;;;;;15.25;46.48;100109.09;5049827;28;20053;-86
2022/04/07 09:01:50;;;;;;;8.73;7.57;;;;;;;15.59;45.19;100133.53;5033742;28;20536;-84
2022/04/07 09:04:21;;;;;;;7.68;6.85;;;;;;;14.55;45.71;99971.13;5033691;28;20186;-85
2022/04/07 09:06:49;;;;;;;9.07;7.18;;;;;;;14.39;46.61;99934.63;5033599;28;20565;-86
2022/04/07 09:09:19;;;;;;;8.18;6.95;;;;;;;16.01;46.22;100175.00;5034136;28;20494;-85
2022/04/07 09:11:46;;;;;;;8.30;6.45;;;;;;;14.67;46.04;99948.34;5058468;28;20052;-87
2022/04/07 09:14:14;;;;;;;11.63;7.63;;;;;;;15.40;45.43;100064.50;5060227;28;20053;-86
2022/04/07 09:16:41;;;;;;;10.25;7.20;;;;;;;15.57;44.93;100091.94;5045304;28;20057;-84
2022/04/07 09:19:11;;;;;;;12.20;6.70;;;;;;;15.29;44.39;100025.66;5050961;28;20049;-86
2022/04/07 09:21:38;;;;;;;12.35;6.70;;;;;;;15.74;44.15;100087.28;5037591;28;20107;-85
2022/04/07 09:24:07;;;;;;;8.48;6.57;;;;;;;15.52;44.38;100030.94;5041145;28;20057;-84
2022/04/07 09:26:36;;;;;;;10.85;6.45;;;;;;;16.61;43.15;100153.59;5012494;28;20408;-86
2022/04/07 09:29:10;;;;;;;9.02;6.95;;;;;;;16.80;42.66;100179.84;5012921;28;20060;-86
2022/04/07 09:31:39;;;;;;;6.93;5.95;;;;;;;16.64;42.72;100153.22;5013295;28;20069;-84
2022/04/07 09:34:07;;;;;;;8.90;6.47;;;;;;;16.62;42.90;100139.19;5013189;28;20111;-86
2022/04/07 09:36:34;;;;;;;7.05;6.30;;;;;;;16.92;42.18;100149.88;5012851;28;20046;-86
2022/04/07 09:39:02;;;;;;;7.53;6.53;;;;;;;16.36;41.76;100029.81;5030528;28;20046;-87
2022/04/07 09:41:30;;;;;;;7.32;5.90;;;;;;;15.91;41.63;99943.41;5012828;28;20045;-86
2022/04/07 09:43:59;;;;;;;8.52;5.97;;;;;;;16.31;41.28;99992.91;5012902;28;20080;-86
2022/04/07 09:46:34;;;;;;;7.53;5.20;;;;;;;16.79;38.16;100020.03;5024184;28;20065;-85
2022/04/07 09:49:14;;;;;;;8.88;5.85;;;;;;;16.53;38.60;99953.59;5034190;28;20092;-86
2022/04/07 09:51:46;;;;;;;7.53;6.05;;;;;;;18.08;38.28;100170.19;5053637;28;20049;-86
2022/04/07 09:54:18;;;;;;;8.65;5.20;;;;;;;17.86;38.61;100114.84;5031485;28;20418;-87
2022/04/07 09:56:49;;;;;;;6.57;5.63;;;;;;;18.22;37.79;100168.41;5030214;28;20049;-84
2022/04/07 09:59:23;;;;;;;8.65;5.45;;;;;;;17.76;38.21;100072.22;5049601;28;20132;-86
2022/04/07 10:01:52;;;;;;;9.48;6.32;;;;;;;17.63;38.49;100019.28;5032081;28;20056;-85
2022/04/07 10:04:22;;;;;;;10.38;6.75;;;;;;;18.48;38.78;100113.16;5049604;28;20468;-83
2022/04/07 10:06:54;;;;;;;11.35;7.25;;;;;;;18.14;37.46;100018.97;5031432;28;20052;-84
2022/04/07 10:09:22;;;;;;;10.73;7.60;;;;;;;18.20;36.84;100020.00;5031729;28;20049;-88
2022/04/07 10:11:50;;;;;;;10.00;7.95;;;;;;;18.12;36.03;99991.47;5047180;28;20053;-86
2022/04/07 10:14:21;;;;;;;7.53;6.68;;;;;;;18.09;36.86;99962.34;5030888;28;20703;-86
2022/04/07 10:16:48;;;;;;;10.90;7.47;;;;;;;19.07;36.07;100096.41;5030218;28;20046;-87
2022/04/07 10:19:24;;;;;;;13.05;8.00;;;;;;;18.79;35.89;100002.44;5030440;28;20049;-86
2022/04/07 10:22:19;;;;;;;11.90;8.00;;;;;;;19.68;35.87;100111.59;5030961;28;20053;-86
2022/04/07 10:24:52;;;;;;;11.63;8.07;;;;;;;19.52;36.06;100052.78;5046152;28;20075;-86
2022/04/07 10:27:48;;;;;;;11.52;8.40;;;;;;;20.26;35.64;100119.78;5032127;28;20056;-85
2022/04/07 10:30:16;;;;;;;;;;;;;;;20.25;34.90;100098.44;5030866;28;20056;-85
2022/04/07 10:32:45;;;;;;;31.38;12.77;;;;;;;20.44;35.15;100099.44;5029498;28;19925;-84
2022/04/07 10:35:34;;;;;;;11.25;8.38;;;;;;;20.52;34.54;100072.22;5045176;28;20049;-86
2022/04/07 10:38:06;;;;;;;16.10;9.73;;;;;;;20.42;34.87;100056.50;5030288;28;20155;-86
2022/04/07 10:40:34;;;;;;;12.80;9.07;;;;;;;20.98;34.89;100100.03;5014950;28;20136;-86
2022/04/07 10:43:07;;;;;;;10.10;7.78;;;;;;;21.24;34.30;100102.53;5048464;28;20068;-86
2022/04/07 10:45:34;;;;;;;13.60;9.60;;;;;;;20.34;34.29;99935.44;5031802;28;20049;-86
2022/04/07 10:48:43;;;;;;;15.27;8.95;;;;;;;21.07;33.20;100040.19;5023122;28;20049;-86
2022/04/07 10:51:11;;;;;;;12.32;9.05;;;;;;;21.21;33.16;100045.47;5006180;28;20434;-87
2022/04/07 10:53:39;;;;;;;12.45;8.48;;;;;;;21.59;33.30;100091.28;5009568;28;20498;-87
2022/04/07 10:56:21;;;;;;;14.95;10.48;;;;;;;21.35;33.29;100003.81;5015101;28;20067;-85
2022/04/07 10:58:55;;;;;;;15.35;9.80;;;;;;;20.98;32.35;99941.66;5029854;28;20053;-86
2022/04/07 11:01:41;;;;;;;12.73;10.00;;;;;;;22.05;32.67;100097.28;5026038;28;20054;-85
2022/04/07 11:04:23;;;;;;;16.10;11.02;;;;;;;22.25;32.97;100102.50;5008044;28;20655;-86
2022/04/07 11:07:07;;;;;;;13.30;10.65;;;;;;;21.90;32.88;100020.13;5009603;28;20052;-88
2022/04/07 11:09:43;;;;;;;15.77;11.13;;;;;;;22.48;32.06;100082.91;5026896;28;20054;-87
2022/04/07 11:12:12;;;;;;;13.65;9.55;;;;;;;22.43;32.73;100051.13;5041008;28;20055;-86
2022/04/07 11:14:38;;;;;;;13.85;10.90;;;;;;;22.36;31.93;100034.97;5007871;28;20114;-85
2022/04/07 11:17:07;;;;;;;12.85;10.38;;;;;;;21.93;32.24;99935.06;5007980;28;20136;-86
2022/04/07 11:19:58;;;;;;;14.82;10.05;;;;;;;21.87;31.56;99928.72;5024785;28;20053;-86
2022/04/07 11:22:57;;;;;;;10.95;9.82;;;;;;;22.93;31.55;100071.66;5006591;28;20510;-87
2022/04/07 11:25:30;;;;;;;12.35;9.60;;;;;;;22.99;31.58;100065.38;5008079;28;20049;-87